Time;durP1;ratioP1;P1;durP2;ratioP2;P2;SDS_P1;SDS_P2;PMS_P1;PMS_P2;Temp;Humidity;BMP_temperature;BMP_pressure;BME280_temperature;BME280_humidity;BME280_pressure;Samples;Min_cycle;Max_cycle;Signal;HPM_P1;HPM_P2
2024/01/14 00:02:00;;;;;;;24.50;13.32;;;-3.30;99.90;;;;;;5017240;28;20213;-77
2024/01/14 00:04:29;;;;;;;26.77;12.73;;;-3.30;99.90;;;;;;5037494;28;20251;-79
2024/01/14 00:06:55;;;;;;;28.67;14.45;;;-3.30;99.90;;;;;;5006420;28;20222;-77
2024/01/14 00:09:22;;;;;;;21.73;13.02;;;-3.30;99.90;;;;;;5003212;28;20253;-79
2024/01/14 00:11:49;;;;;;;27.33;13.70;;;-3.30;99.90;;;;;;5008945;28;20230;-77
2024/01/14 00:14:16;;;;;;;23.25;11.90;;;-3.20;99.90;;;;;;5011108;28;20247;-78
2024/01/14 00:16:43;;;;;;;25.42;12.32;;;-3.20;99.90;;;;;;5022852;28;20220;-78
2024/01/14 00:19:10;;;;;;;20.25;11.10;;;-3.20;99.90;;;;;;5005018;28;20219;-76
2024/01/14 00:21:39;;;;;;;24.85;11.95;;;-3.20;99.90;;;;;;5009750;28;20199;-78
2024/01/14 00:24:06;;;;;;;19.00;9.10;;;-3.20;99.90;;;;;;5009740;28;20794;-77
2024/01/14 00:26:33;;;;;;;24.65;14.10;;;-3.30;99.90;;;;;;5009730;28;20211;-79
2024/01/14 00:29:00;;;;;;;24.52;13.10;;;-3.20;99.90;;;;;;5011879;28;20666;-78
2024/01/14 00:31:27;;;;;;;21.20;11.48;;;-3.20;99.90;;;;;;5005329;28;20209;-78
2024/01/14 00:33:54;;;;;;;26.23;11.48;;;-3.20;99.90;;;;;;4995426;28;20249;-76
2024/01/14 00:36:21;;;;;;;21.70;12.32;;;-3.20;99.90;;;;;;5006667;28;20197;-77
2024/01/14 00:38:50;;;;;;;14.77;10.05;;;-3.20;99.90;;;;;;5010094;28;20820;-77
2024/01/14 00:41:17;;;;;;;24.50;12.07;;;-3.20;99.90;;;;;;5005306;28;20214;-79
2024/01/14 00:43:45;;;;;;;16.67;9.80;;;-3.20;99.90;;;;;;5007143;28;20964;-77
2024/01/14 00:46:12;;;;;;;27.40;12.70;;;-3.20;99.90;;;;;;5003129;28;20294;-77
2024/01/14 00:48:39;;;;;;;16.02;8.75;;;-3.20;99.90;;;;;;4996917;28;20360;-79
2024/01/14 00:51:06;;;;;;;20.88;11.05;;;-3.20;99.90;;;;;;5002011;28;20254;-79
2024/01/14 00:53:33;;;;;;;29.58;13.73;;;-3.20;99.90;;;;;;5033452;28;20293;-79
2024/01/14 00:56:01;;;;;;;25.13;14.35;;;-3.20;99.90;;;;;;5007717;28;20200;-76
2024/01/14 00:58:28;;;;;;;16.52;9.95;;;-3.20;99.90;;;;;;5005070;28;20202;-79
2024/01/14 01:00:55;;;;;;;27.27;11.65;;;-3.20;99.90;;;;;;5007797;28;20802;-77
2024/01/14 01:03:22;;;;;;;20.15;10.70;;;-3.20;99.90;;;;;;5008513;28;20204;-78
2024/01/14 01:05:49;;;;;;;28.80;13.32;;;-3.10;99.90;;;;;;5034728;28;20200;-79
2024/01/14 01:08:16;;;;;;;21.48;10.38;;;-3.10;99.90;;;;;;4999273;28;20266;-78
2024/01/14 01:10:43;;;;;;;23.45;10.98;;;-3.10;99.90;;;;;;5004116;28;20285;-76
2024/01/14 01:13:11;;;;;;;25.98;12.13;;;-3.10;99.90;;;;;;5007860;28;20704;-78
2024/01/14 01:15:38;;;;;;;24.90;13.02;;;-3.10;99.90;;;;;;5005297;28;20201;-77
2024/01/14 01:18:05;;;;;;;20.92;11.57;;;-3.10;99.90;;;;;;5010095;28;20240;-77
2024/01/14 01:20:32;;;;;;;37.30;13.02;;;-3.10;99.90;;;;;;5003586;28;20200;-77
2024/01/14 01:23:00;;;;;;;20.17;11.68;;;-3.10;99.90;;;;;;5004641;28;20222;-77
2024/01/14 01:25:26;;;;;;;21.40;10.90;;;-3.10;99.90;;;;;;5004711;28;20197;-76
2024/01/14 01:27:53;;;;;;;16.40;9.50;;;-3.10;99.90;;;;;;5003899;28;20721;-77
2024/01/14 01:30:22;;;;;;;23.60;11.25;;;-3.10;99.90;;;;;;5012137;28;20265;-77
2024/01/14 01:32:49;;;;;;;21.30;11.98;;;-3.10;99.90;;;;;;5022351;28;20204;-79
2024/01/14 01:35:19;;;;;;;34.58;13.60;;;-3.10;99.90;;;;;;5003392;28;20290;-76
2024/01/14 01:37:46;;;;;;;25.48;11.52;;;-3.10;99.90;;;;;;5006159;28;20334;-78
2024/01/14 01:40:13;;;;;;;27.02;12.23;;;-3.10;99.90;;;;;;5013485;28;20209;-78
2024/01/14 01:42:41;;;;;;;19.95;10.30;;;-3.10;99.90;;;;;;5002359;28;20270;-77
2024/01/14 01:45:09;;;;;;;24.85;13.80;;;-3.10;99.90;;;;;;5004972;28;20213;-77
2024/01/14 01:47:38;;;;;;;18.90;9.82;;;-3.10;99.90;;;;;;4994897;28;20317;-78
2024/01/14 01:50:05;;;;;;;24.95;12.88;;;-3.10;99.90;;;;;;5004903;28;20207;-78
2024/01/14 01:52:33;;;;;;;22.25;13.65;;;-3.10;99.90;;;;;;5007898;28;20202;-78
2024/01/14 01:55:00;;;;;;;31.85;13.57;;;-3.10;99.90;;;;;;5000593;28;20274;-79
2024/01/14 01:57:28;;;;;;;29.20;15.15;;;-3.10;99.90;;;;;;5007287;28;20717;-79
2024/01/14 01:59:56;;;;;;;30.13;17.15;;;-3.00;99.90;;;;;;5001180;28;20340;-79
2024/01/14 02:02:23;;;;;;;26.90;12.00;;;-3.00;99.90;;;;;;5012428;28;20197;-77
2024/01/14 02:04:51;;;;;;;28.70;13.50;;;-3.00;99.90;;;;;;5013558;28;20267;-78
2024/01/14 02:07:20;;;;;;;22.77;11.95;;;-3.00;99.90;;;;;;5004061;28;20205;-77
2024/01/14 02:09:47;;;;;;;25.13;12.07;;;-3.00;99.90;;;;;;5020826;28;20205;-76
2024/01/14 02:12:14;;;;;;;24.05;10.40;;;-3.00;99.90;;;;;;5062022;28;20218;-77
2024/01/14 02:14:41;;;;;;;24.05;12.68;;;-3.00;99.90;;;;;;5021712;28;20668;-78
2024/01/14 02:17:08;;;;;;;24.00;12.95;;;-3.00;99.90;;;;;;5022445;28;20286;-79
2024/01/14 02:19:35;;;;;;;30.63;12.95;;;-3.00;99.90;;;;;;5004110;28;20632;-77
2024/01/14 02:22:09;;;;;;;21.42;10.40;;;-2.90;99.90;;;;;;5002841;28;20254;-77
2024/01/14 02:24:39;;;;;;;25.92;13.98;;;-3.00;99.90;;;;;;4993484;28;20294;-78
2024/01/14 02:27:06;;;;;;;30.17;11.93;;;-3.00;99.90;;;;;;5003114;28;20201;-78
2024/01/14 02:29:35;;;;;;;21.60;13.15;;;-3.00;99.90;;;;;;5029934;28;20229;-78
2024/01/14 02:32:02;;;;;;;18.33;9.18;;;-3.00;99.90;;;;;;4999587;28;20727;-78
2024/01/14 02:34:28;;;;;;;20.13;9.82;;;-3.00;99.90;;;;;;5003756;28;20254;-78
2024/01/14 02:36:56;;;;;;;32.45;14.07;;;-3.00;99.90;;;;;;5003168;28;20691;-77
2024/01/14 02:39:22;;;;;;;31.17;12.98;;;-3.00;99.90;;;;;;5024201;28;20351;-76
2024/01/14 02:41:51;;;;;;;17.63;11.77;;;-3.00;99.90;;;;;;5039382;28;20288;-78
2024/01/14 02:44:18;;;;;;;19.42;9.48;;;-3.10;99.90;;;;;;5037995;28;20207;-78
2024/01/14 02:46:46;;;;;;;23.48;11.45;;;-3.00;99.90;;;;;;5000126;28;20682;-77
2024/01/14 02:49:13;;;;;;;21.70;11.18;;;-3.10;99.90;;;;;;5034581;28;20633;-78
2024/01/14 02:51:40;;;;;;;23.75;11.45;;;-3.10;99.90;;;;;;5012677;28;20210;-79
2024/01/14 02:54:07;;;;;;;27.35;12.55;;;-3.00;99.90;;;;;;5019701;28;20581;-77
2024/01/14 02:56:33;;;;;;;18.92;9.00;;;-3.10;99.90;;;;;;5019202;28;20840;-78
2024/01/14 02:59:02;;;;;;;18.55;11.02;;;-3.00;99.90;;;;;;5018656;28;20262;-76
2024/01/14 03:01:29;;;;;;;26.80;9.70;;;-3.00;99.90;;;;;;5036261;28;20256;-77
2024/01/14 03:03:56;;;;;;;19.45;12.13;;;-3.00;99.90;;;;;;5031728;28;20232;-77
2024/01/14 03:06:23;;;;;;;18.65;8.63;;;-3.00;99.90;;;;;;5016942;28;20208;-77
2024/01/14 03:08:50;;;;;;;22.50;10.80;;;-3.00;99.90;;;;;;5011348;28;20239;-78
2024/01/14 03:11:17;;;;;;;22.80;10.23;;;-3.00;99.90;;;;;;5017890;28;20208;-78
2024/01/14 03:13:44;;;;;;;17.83;10.18;;;-3.00;99.90;;;;;;5026631;28;20260;-78
2024/01/14 03:16:13;;;;;;;23.85;10.10;;;-3.00;99.90;;;;;;5007493;28;20201;-77
2024/01/14 03:18:40;;;;;;;21.90;9.85;;;-3.00;99.90;;;;;;5027530;28;20281;-78
2024/01/14 03:21:08;;;;;;;20.98;11.23;;;-3.00;99.90;;;;;;4984941;28;20907;-76
2024/01/14 03:23:34;;;;;;;23.92;11.02;;;-3.00;99.90;;;;;;4987967;28;20211;-78
2024/01/14 03:26:02;;;;;;;15.85;9.15;;;-3.00;99.90;;;;;;4990840;28;20567;-77
2024/01/14 03:28:29;;;;;;;23.90;10.88;;;-3.00;99.90;;;;;;4989199;28;20221;-78
2024/01/14 03:30:56;;;;;;;21.00;8.77;;;-3.00;99.90;;;;;;5047167;28;20209;-77
2024/01/14 03:33:24;;;;;;;21.65;10.77;;;-3.10;99.90;;;;;;4987256;28;20209;-77
2024/01/14 03:35:51;;;;;;;22.45;9.63;;;-3.00;99.90;;;;;;4983288;28;20696;-77
2024/01/14 03:38:18;;;;;;;20.13;10.60;;;-3.00;99.90;;;;;;4976307;28;20216;-79
2024/01/14 03:40:46;;;;;;;16.83;10.95;;;-3.00;99.90;;;;;;4986900;28;20258;-79
2024/01/14 03:43:13;;;;;;;30.48;10.32;;;-3.00;99.90;;;;;;4987340;28;20613;-78
2024/01/14 03:45:40;;;;;;;21.27;10.07;;;-3.00;99.90;;;;;;4986976;28;20199;-78
2024/01/14 03:48:07;;;;;;;21.73;11.02;;;-3.10;99.90;;;;;;4991479;28;20221;-79
2024/01/14 03:50:35;;;;;;;20.20;10.40;;;-3.10;99.90;;;;;;4986709;28;20201;-80
2024/01/14 03:53:02;;;;;;;28.27;11.88;;;-3.10;99.90;;;;;;4984722;28;20204;-79
2024/01/14 03:55:29;;;;;;;21.63;11.55;;;-3.10;99.90;;;;;;4980697;28;20204;-79
2024/01/14 03:57:58;;;;;;;16.90;12.20;;;-3.10;99.90;;;;;;4977862;28;20214;-79
2024/01/14 04:00:25;;;;;;;18.38;9.20;;;-3.10;99.90;;;;;;4994147;28;20222;-77
2024/01/14 04:02:53;;;;;;;16.80;9.02;;;-3.10;99.90;;;;;;4985277;28;20305;-78
2024/01/14 04:05:19;;;;;;;23.08;11.63;;;-3.10;99.90;;;;;;4995067;28;20772;-78
2024/01/14 04:07:49;;;;;;;13.23;7.28;;;-3.10;99.90;;;;;;4988907;28;20204;-78
2024/01/14 04:10:16;;;;;;;29.88;11.60;;;-3.00;99.90;;;;;;4988262;28;20211;-79
2024/01/14 04:12:43;;;;;;;18.95;9.77;;;-3.00;99.90;;;;;;5031595;28;20199;-78
2024/01/14 04:15:11;;;;;;;24.52;10.15;;;-3.00;99.90;;;;;;5017055;28;20741;-79
2024/01/14 04:17:38;;;;;;;23.80;10.27;;;-3.00;99.90;;;;;;5033624;28;20263;-79
2024/01/14 04:20:06;;;;;;;20.33;9.38;;;-3.00;99.90;;;;;;5016244;28;20619;-77
2024/01/14 04:22:33;;;;;;;20.42;8.88;;;-3.00;99.90;;;;;;5055594;28;20615;-79
2024/01/14 04:25:01;;;;;;;21.90;11.48;;;-3.00;99.90;;;;;;5047316;28;20204;-78
2024/01/14 04:27:28;;;;;;;15.10;9.35;;;-3.00;99.90;;;;;;5046544;28;20741;-78
2024/01/14 04:29:55;;;;;;;22.58;9.93;;;-3.00;99.90;;;;;;5021613;28;21069;-78
2024/01/14 04:32:22;;;;;;;21.60;11.52;;;-3.00;99.90;;;;;;5061029;28;20229;-78
2024/01/14 04:34:49;;;;;;;28.15;12.45;;;-3.00;99.90;;;;;;5037607;28;20286;-80
2024/01/14 04:37:17;;;;;;;23.70;8.80;;;-3.00;99.90;;;;;;5031043;28;20200;-80
2024/01/14 04:39:44;;;;;;;21.73;10.85;;;-3.00;99.90;;;;;;5030007;28;20218;-77
2024/01/14 04:42:12;;;;;;;26.00;10.85;;;-3.00;99.90;;;;;;5041371;28;20233;-79
2024/01/14 04:44:39;;;;;;;21.55;10.75;;;-3.00;99.90;;;;;;5033991;28;20614;-79
2024/01/14 04:47:06;;;;;;;23.70;9.90;;;-2.90;99.90;;;;;;5016485;28;20289;-79
2024/01/14 04:49:33;;;;;;;21.33;11.02;;;-2.90;99.90;;;;;;5027561;28;20547;-80
2024/01/14 04:52:00;;;;;;;19.42;10.25;;;-2.90;99.90;;;;;;5032021;28;20221;-77
2024/01/14 04:54:26;;;;;;;20.40;10.80;;;-2.90;99.90;;;;;;5030334;28;20235;-78
2024/01/14 04:56:53;;;;;;;20.90;9.97;;;-2.80;99.90;;;;;;5004838;28;20241;-78
2024/01/14 04:59:22;;;;;;;23.48;12.50;;;-2.80;99.90;;;;;;5029412;28;20461;-77
2024/01/14 05:01:49;;;;;;;22.80;9.90;;;-2.80;99.90;;;;;;5037381;28;20285;-78
2024/01/14 05:04:16;;;;;;;22.73;10.93;;;-2.70;99.90;;;;;;5043930;28;20579;-78
2024/01/14 05:06:43;;;;;;;20.75;11.13;;;-2.70;99.90;;;;;;5003069;28;20200;-78
2024/01/14 05:09:10;;;;;;;22.88;10.95;;;-2.70;99.90;;;;;;5012198;28;20317;-79
2024/01/14 05:11:37;;;;;;;23.35;12.43;;;-2.80;99.90;;;;;;5001799;28;20202;-77
2024/01/14 05:14:04;;;;;;;29.65;12.77;;;-2.80;99.90;;;;;;5004032;28;20270;-78
2024/01/14 05:16:32;;;;;;;29.77;14.82;;;-2.90;99.90;;;;;;5015173;28;20206;-76
2024/01/14 05:18:59;;;;;;;10.20;6.03;;;-3.00;99.90;;;;;;5048534;28;20207;-78
2024/01/14 05:21:26;;;;;;;18.02;9.57;;;-3.00;99.90;;;;;;5002583;28;20260;-77
2024/01/14 05:23:53;;;;;;;30.73;13.27;;;-3.10;99.90;;;;;;5003603;28;20210;-78
2024/01/14 05:26:20;;;;;;;19.60;11.10;;;-3.10;99.90;;;;;;5003002;28;20208;-78
2024/01/14 05:28:46;;;;;;;28.85;14.80;;;-3.10;99.90;;;;;;5016857;28;20247;-77
2024/01/14 05:31:13;;;;;;;29.17;12.20;;;-3.10;99.90;;;;;;5018526;28;20205;-78
2024/01/14 05:33:41;;;;;;;17.30;9.77;;;-3.10;99.90;;;;;;5003520;28;20457;-78
2024/01/14 05:36:09;;;;;;;27.70;11.82;;;-3.10;99.90;;;;;;5003896;28;20285;-78
2024/01/14 05:38:36;;;;;;;20.55;10.43;;;-3.10;99.90;;;;;;5003398;28;20235;-77
2024/01/14 05:41:03;;;;;;;24.58;12.27;;;-3.10;99.90;;;;;;5029902;28;20259;-80
2024/01/14 05:43:30;;;;;;;26.45;16.15;;;-3.10;99.90;;;;;;5024840;28;20199;-77
2024/01/14 05:45:57;;;;;;;19.20;9.95;;;-3.20;99.90;;;;;;5043460;28;20735;-82
2024/01/14 05:48:24;;;;;;;16.20;8.00;;;-3.20;99.90;;;;;;5067759;28;20259;-79
2024/01/14 05:50:52;;;;;;;24.90;11.38;;;-3.20;99.90;;;;;;5032669;28;20205;-79
2024/01/14 05:53:20;;;;;;;13.68;8.95;;;-3.20;99.90;;;;;;5014320;28;20209;-79
2024/01/14 05:55:47;;;;;;;27.75;11.57;;;-3.20;99.90;;;;;;5064819;28;20773;-80
2024/01/14 05:58:13;;;;;;;23.15;12.40;;;-3.20;99.90;;;;;;5048746;28;20258;-78
2024/01/14 06:00:40;;;;;;;29.17;12.77;;;-3.20;99.90;;;;;;5040200;28;20204;-81
2024/01/14 06:03:08;;;;;;;26.05;10.70;;;-3.20;99.90;;;;;;5068633;28;20261;-80
2024/01/14 06:05:35;;;;;;;25.42;11.30;;;-3.20;99.90;;;;;;5031918;28;20665;-77
2024/01/14 06:08:03;;;;;;;23.88;11.25;;;-3.20;99.90;;;;;;5016806;28;20208;-79
2024/01/14 06:10:31;;;;;;;29.17;15.35;;;-3.10;99.90;;;;;;5000644;28;20276;-80
2024/01/14 06:12:57;;;;;;;25.15;13.40;;;-3.20;99.90;;;;;;5021124;28;20206;-78
2024/01/14 06:15:24;;;;;;;22.45;12.35;;;-3.10;99.90;;;;;;5020650;28;20559;-80
2024/01/14 06:17:51;;;;;;;25.70;11.60;;;-3.10;99.90;;;;;;5025054;28;20261;-77
2024/01/14 06:20:19;;;;;;;22.30;11.18;;;-3.10;99.90;;;;;;5006259;28;20214;-79
2024/01/14 06:22:45;;;;;;;23.42;12.38;;;-3.10;99.90;;;;;;5026331;28;20232;-79
2024/01/14 06:25:14;;;;;;;23.38;11.07;;;-3.10;99.90;;;;;;5036681;28;20201;-78
2024/01/14 06:27:41;;;;;;;27.27;11.02;;;-3.10;99.90;;;;;;5055659;28;20852;-78
2024/01/14 06:30:09;;;;;;;22.05;12.93;;;-3.10;99.90;;;;;;5053892;28;20257;-79
2024/01/14 06:32:35;;;;;;;19.60;12.07;;;-3.10;99.90;;;;;;5007015;28;20206;-80
2024/01/14 06:35:02;;;;;;;27.20;11.65;;;-3.00;99.90;;;;;;5014135;28;20660;-80
2024/01/14 06:37:29;;;;;;;22.83;11.65;;;-3.10;99.90;;;;;;5004231;28;20202;-78
2024/01/14 06:39:56;;;;;;;21.60;11.90;;;-3.20;99.90;;;;;;5014264;28;20209;-79
2024/01/14 06:42:25;;;;;;;21.50;11.80;;;-3.20;99.90;;;;;;5013791;28;20253;-78
2024/01/14 06:44:52;;;;;;;23.13;10.27;;;-3.20;99.90;;;;;;5009370;28;20737;-81
2024/01/14 06:47:19;;;;;;;22.30;10.77;;;-3.30;99.90;;;;;;5018567;28;20261;-80
2024/01/14 06:49:46;;;;;;;23.55;11.32;;;-3.30;99.90;;;;;;5009773;28;20254;-78
2024/01/14 06:52:13;;;;;;;21.88;10.88;;;-3.30;99.90;;;;;;5025482;28;20242;-80
2024/01/14 06:54:40;;;;;;;25.65;14.68;;;-3.20;99.90;;;;;;5029986;28;20200;-78
2024/01/14 06:57:07;;;;;;;20.52;11.15;;;-3.20;99.90;;;;;;5013731;28;20204;-78
2024/01/14 06:59:37;;;;;;;24.05;12.32;;;-3.30;99.90;;;;;;4999808;28;20227;-80
2024/01/14 07:02:04;;;;;;;22.70;11.23;;;-3.20;99.90;;;;;;5032436;28;20308;-79
2024/01/14 07:04:31;;;;;;;32.50;12.65;;;-3.20;99.90;;;;;;5023884;28;20287;-80
2024/01/14 07:06:58;;;;;;;18.75;11.07;;;-3.20;99.90;;;;;;5001188;28;20213;-79
2024/01/14 07:09:25;;;;;;;19.15;11.98;;;-3.20;99.90;;;;;;5005410;28;20781;-80
2024/01/14 07:11:52;;;;;;;24.80;13.20;;;-3.20;99.90;;;;;;5005333;28;20209;-79
2024/01/14 07:14:19;;;;;;;21.83;11.30;;;-3.10;99.90;;;;;;4999512;28;20751;-80
2024/01/14 07:16:47;;;;;;;22.30;11.52;;;-3.10;99.90;;;;;;5007848;28;20230;-78
2024/01/14 07:19:15;;;;;;;29.95;14.57;;;-3.00;99.90;;;;;;5003285;28;20209;-81
2024/01/14 07:21:41;;;;;;;22.67;11.55;;;-3.00;99.90;;;;;;5003711;28;20289;-80
2024/01/14 07:24:08;;;;;;;22.13;12.57;;;-3.00;99.90;;;;;;5016705;28;20906;-81
2024/01/14 07:26:35;;;;;;;23.27;13.25;;;-2.90;99.90;;;;;;5011470;28;20206;-80
2024/01/14 07:29:03;;;;;;;23.08;13.02;;;-2.90;99.90;;;;;;5034161;28;20368;-81
2024/01/14 07:31:31;;;;;;;22.15;13.18;;;-2.80;99.90;;;;;;5021979;28;20296;-81
2024/01/14 07:33:59;;;;;;;20.15;11.90;;;-2.70;99.90;;;;;;5009960;28;20210;-81
2024/01/14 07:36:26;;;;;;;27.90;13.40;;;-2.70;99.90;;;;;;5006032;28;20240;-79
2024/01/14 07:38:54;;;;;;;24.38;12.25;;;-2.50;99.90;;;;;;5032038;28;20285;-78
2024/01/14 07:41:21;;;;;;;24.63;14.45;;;-2.40;99.90;;;;;;5035485;28;20235;-79
2024/01/14 07:43:48;;;;;;;23.02;11.50;;;-2.40;99.90;;;;;;5013129;28;20279;-80
2024/01/14 07:46:15;;;;;;;19.35;11.15;;;-2.40;99.90;;;;;;5021857;28;20285;-81
2024/01/14 07:48:42;;;;;;;30.33;14.02;;;-2.40;99.90;;;;;;5007364;28;20299;-78
2024/01/14 07:51:11;;;;;;;34.35;13.68;;;-2.30;99.90;;;;;;5021235;28;20314;-77
2024/01/14 07:53:38;;;;;;;23.50;12.75;;;-2.30;99.90;;;;;;5033853;28;20999;-78
2024/01/14 07:56:05;;;;;;;24.45;13.10;;;-2.30;99.90;;;;;;5036840;28;20245;-78
2024/01/14 07:58:32;;;;;;;19.10;10.50;;;-2.40;99.90;;;;;;5014396;28;20231;-79
2024/01/14 08:00:59;;;;;;;20.75;12.13;;;-2.40;99.90;;;;;;5024385;28;20232;-78
2024/01/14 08:03:26;;;;;;;22.45;10.77;;;-2.30;99.90;;;;;;5039582;28;20271;-78
2024/01/14 08:05:53;;;;;;;20.88;12.23;;;-2.30;99.90;;;;;;5024211;28;20618;-79
2024/01/14 08:08:23;;;;;;;21.40;12.45;;;-2.30;99.90;;;;;;5008507;28;20973;-80
2024/01/14 08:10:51;;;;;;;22.27;12.57;;;-2.30;99.90;;;;;;5034909;28;20227;-77
2024/01/14 08:13:18;;;;;;;25.83;11.73;;;-2.30;99.90;;;;;;4999638;28;20207;-78
2024/01/14 08:15:45;;;;;;;26.33;10.13;;;-2.20;99.90;;;;;;5004656;28;20203;-80
2024/01/14 08:18:12;;;;;;;18.48;9.70;;;-2.20;99.90;;;;;;5013760;28;20342;-78
2024/01/14 08:20:39;;;;;;;20.80;11.55;;;-2.20;99.90;;;;;;5004674;28;20669;-78
2024/01/14 08:23:06;;;;;;;12.55;8.73;;;-2.20;99.90;;;;;;5049951;28;20210;-78
2024/01/14 08:25:35;;;;;;;18.85;10.77;;;-2.20;99.90;;;;;;5017371;28;20243;-81
2024/01/14 08:28:02;;;;;;;18.02;11.55;;;-2.10;99.90;;;;;;5009162;28;20282;-79
2024/01/14 08:30:28;;;;;;;21.55;8.48;;;-2.00;99.90;;;;;;5008246;28;20303;-79
2024/01/14 08:32:54;;;;;;;23.90;10.53;;;-1.90;99.90;;;;;;5003856;28;20202;-78
2024/01/14 08:35:23;;;;;;;16.10;10.50;;;-1.80;99.90;;;;;;5000355;28;20522;-80
2024/01/14 08:37:53;;;;;;;17.63;7.35;;;-1.80;99.90;;;;;;4998167;28;20968;-76
2024/01/14 08:40:20;;;;;;;16.38;8.68;;;-1.70;99.90;;;;;;4999538;28;20313;-79
2024/01/14 08:42:49;;;;;;;16.48;7.65;;;-1.80;99.90;;;;;;5001593;28;20675;-77
2024/01/14 08:45:17;;;;;;;14.63;6.88;;;-1.60;99.90;;;;;;5006019;28;20988;-78
2024/01/14 08:47:44;;;;;;;21.75;10.30;;;-1.50;99.90;;;;;;5000759;28;20294;-78
2024/01/14 08:50:11;;;;;;;14.27;8.70;;;-1.50;99.90;;;;;;4996625;28;20229;-78
2024/01/14 08:52:39;;;;;;;27.70;12.70;;;-1.50;99.90;;;;;;5022104;28;20230;-78
2024/01/14 08:55:08;;;;;;;13.23;8.40;;;-1.40;99.90;;;;;;5000340;28;20238;-78
2024/01/14 08:57:35;;;;;;;17.58;11.13;;;-1.40;99.90;;;;;;5008787;28;20216;-78
2024/01/14 09:00:04;;;;;;;17.35;10.65;;;-1.40;99.90;;;;;;4996075;28;20219;-77
2024/01/14 09:02:31;;;;;;;13.18;8.02;;;-1.40;99.90;;;;;;5001434;28;20220;-77
2024/01/14 09:04:58;;;;;;;13.95;8.20;;;-1.40;99.90;;;;;;5005042;28;20226;-79
2024/01/14 09:07:25;;;;;;;22.43;10.40;;;-1.40;99.90;;;;;;5000212;28;20231;-78
2024/01/14 09:09:52;;;;;;;16.17;9.75;;;-1.30;99.90;;;;;;5007150;28;20493;-82
2024/01/14 09:12:18;;;;;;;15.73;8.90;;;-1.30;99.90;;;;;;5010334;28;20208;-81
2024/01/14 09:14:45;;;;;;;17.03;7.73;;;-1.40;99.90;;;;;;5006982;28;20211;-80
2024/01/14 09:17:13;;;;;;;20.90;8.90;;;-1.30;99.90;;;;;;5001190;28;21272;-78
2024/01/14 09:19:41;;;;;;;12.77;8.13;;;-1.30;99.90;;;;;;5005824;28;20246;-79
2024/01/14 09:22:15;;;;;;;14.07;6.55;;;-1.30;99.90;;;;;;5000614;28;20206;-79
2024/01/14 09:24:45;;;;;;;10.55;6.35;;;-1.20;99.90;;;;;;5010390;28;20232;-77
2024/01/14 09:27:12;;;;;;;13.77;6.65;;;-1.20;99.90;;;;;;4998587;28;20204;-77
2024/01/14 09:29:39;;;;;;;12.48;6.88;;;-1.20;99.90;;;;;;5008261;28;20295;-77
2024/01/14 09:32:06;;;;;;;14.60;6.13;;;-1.10;99.90;;;;;;4998185;28;20230;-78
2024/01/14 09:34:35;;;;;;;10.38;6.15;;;-1.00;99.90;;;;;;4994051;28;20254;-79
2024/01/14 09:37:02;;;;;;;13.48;7.80;;;-1.10;99.90;;;;;;5018097;28;20202;-78
2024/01/14 09:39:29;;;;;;;12.90;7.57;;;-1.00;99.90;;;;;;5025643;28;20194;-79
2024/01/14 09:42:05;;;;;;;16.13;8.75;;;-1.00;99.90;;;;;;5041338;28;20240;-78
2024/01/14 09:44:32;;;;;;;15.48;6.65;;;-0.90;99.90;;;;;;5037809;28;20210;-77
2024/01/14 09:47:00;;;;;;;14.68;8.13;;;-0.90;99.90;;;;;;5015447;28;20229;-81
2024/01/14 09:49:27;;;;;;;21.05;9.68;;;-0.90;99.90;;;;;;5046529;28;20502;-78
2024/01/14 09:51:56;;;;;;;16.58;7.05;;;-0.80;99.90;;;;;;4994819;28;20777;-77
2024/01/14 09:54:23;;;;;;;17.33;7.47;;;-0.70;99.90;;;;;;5004058;28;20230;-84
2024/01/14 09:56:54;;;;;;;15.40;8.77;;;-0.70;99.90;;;;;;5025656;27;20553;-90
2024/01/14 09:59:22;;;;;;;17.27;8.77;;;-0.70;99.90;;;;;;5021760;28;20273;-89
2024/01/14 10:01:50;;;;;;;17.60;8.90;;;-0.80;99.90;;;;;;5004991;28;20200;-78
2024/01/14 10:04:20;;;;;;;10.90;6.97;;;-0.70;99.90;;;;;;5053986;28;20547;-77
2024/01/14 10:06:48;;;;;;;16.23;9.15;;;-0.80;99.90;;;;;;4999337;28;20570;-76
2024/01/14 10:09:17;;;;;;;14.00;6.88;;;-0.80;99.90;;;;;;5009797;28;20202;-77
2024/01/14 10:11:46;;;;;;;13.38;8.45;;;-0.70;99.90;;;;;;5028275;28;20317;-79
2024/01/14 10:14:13;;;;;;;14.80;7.22;;;-0.70;99.90;;;;;;5012946;28;20683;-77
2024/01/14 10:16:40;;;;;;;15.38;7.80;;;-0.80;99.90;;;;;;5046415;28;20244;-78
2024/01/14 10:19:07;;;;;;;13.30;6.28;;;-0.70;99.90;;;;;;5062128;28;20272;-78
2024/01/14 10:21:34;;;;;;;14.88;7.40;;;-0.80;99.90;;;;;;5004459;28;20666;-78
2024/01/14 10:24:03;;;;;;;16.25;7.53;;;-0.80;99.90;;;;;;4995755;28;20802;-78
2024/01/14 10:26:31;;;;;;;7.07;6.38;;;-0.90;99.90;;;;;;4998188;28;20203;-81
2024/01/14 10:29:03;;;;;;;13.88;6.38;;;-0.80;99.90;;;;;;4999213;28;20240;-78
2024/01/14 10:31:31;;;;;;;18.05;8.55;;;-0.80;99.90;;;;;;4998439;28;20238;-75
2024/01/14 10:33:59;;;;;;;12.68;7.80;;;-0.80;99.90;;;;;;5007845;28;20345;-78
2024/01/14 10:36:28;;;;;;;18.30;9.10;;;-0.80;99.90;;;;;;5012996;28;20291;-79
2024/01/14 10:38:57;;;;;;;12.73;7.82;;;-0.70;99.90;;;;;;5003628;28;20302;-79
2024/01/14 10:41:24;;;;;;;13.88;8.45;;;-0.80;99.90;;;;;;4995874;28;20222;-78
2024/01/14 10:43:53;;;;;;;13.90;7.40;;;-0.70;99.90;;;;;;4995467;28;20207;-79
2024/01/14 10:46:20;;;;;;;12.23;7.40;;;-0.60;99.90;;;;;;4991928;28;20224;-77
2024/01/14 10:48:53;;;;;;;23.17;9.55;;;-0.60;99.90;;;;;;5021406;28;20486;-76
2024/01/14 10:51:22;;;;;;;15.15;8.88;;;-0.50;99.90;;;;;;5014894;28;20253;-79
2024/01/14 10:53:56;;;;;;;16.90;9.70;;;-0.50;99.90;;;;;;5034375;28;20302;-80
2024/01/14 10:56:30;;;;;;;21.58;10.75;;;-0.40;99.90;;;;;;5012400;28;20233;-77
2024/01/14 10:59:01;;;;;;;16.45;9.60;;;-0.50;99.90;;;;;;5019660;28;20619;-78
2024/01/14 11:01:32;;;;;;;19.33;10.32;;;-0.50;99.90;;;;;;4999146;28;20211;-79
2024/01/14 11:04:01;;;;;;;17.73;10.07;;;-0.30;99.90;;;;;;5006409;28;20287;-78
2024/01/14 11:06:29;;;;;;;15.95;8.23;;;-0.10;99.90;;;;;;5007210;28;20211;-78
2024/01/14 11:08:56;;;;;;;16.25;9.27;;;-0.20;99.90;;;;;;5013972;28;20234;-77
2024/01/14 11:11:32;;;;;;;19.55;9.35;;;-0.20;99.90;;;;;;5010120;28;20961;-79
2024/01/14 11:14:09;;;;;;;19.15;9.48;;;-0.20;99.90;;;;;;5011453;28;20359;-76
2024/01/14 11:16:43;;;;;;;14.40;8.70;;;-0.10;99.90;;;;;;5014727;28;20243;-79
2024/01/14 11:19:15;;;;;;;19.95;9.77;;;0.10;99.90;;;;;;5007060;28;20481;-77
2024/01/14 11:21:52;;;;;;;14.95;9.43;;;0.20;99.90;;;;;;5029028;28;20834;-80
2024/01/14 11:24:24;;;;;;;17.67;10.93;;;0.40;99.90;;;;;;5020388;28;20199;-79
2024/01/14 11:26:51;;;;;;;17.03;8.43;;;0.60;99.90;;;;;;5039987;28;21044;-77
2024/01/14 11:29:31;;;;;;;17.83;10.97;;;0.70;99.90;;;;;;5050714;28;20466;-77
2024/01/14 11:32:12;;;;;;;19.30;9.57;;;1.00;99.90;;;;;;5033348;28;21237;-78
2024/01/14 11:35:02;;;;;;;21.57;9.53;;;0.90;99.90;;;;;;5046875;28;20566;-78
2024/01/14 11:37:43;;;;;;;26.17;11.30;;;0.90;99.90;;;;;;5009209;28;20465;-78
2024/01/14 11:40:25;;;;;;;13.07;8.00;;;0.80;99.90;;;;;;5006767;28;20688;-78
2024/01/14 11:42:57;;;;;;;13.27;7.87;;;0.80;99.90;;;;;;5026933;28;20235;-79
2024/01/14 11:45:36;;;;;;;14.10;8.45;;;0.70;99.90;;;;;;5024684;28;20482;-79
2024/01/14 11:48:05;;;;;;;12.10;7.20;;;0.70;99.90;;;;;;5018608;28;20254;-78
2024/01/14 11:50:36;;;;;;;12.87;7.60;;;0.70;99.90;;;;;;5032741;28;20556;-77
2024/01/14 11:53:04;;;;;;;15.90;8.27;;;0.70;99.90;;;;;;5011676;28;20459;-77
2024/01/14 11:55:32;;;;;;;13.73;8.20;;;0.80;99.90;;;;;;5032767;28;21172;-79
2024/01/14 11:58:14;;;;;;;13.43;8.03;;;1.00;99.90;;;;;;5027357;28;20477;-77
2024/01/14 12:00:43;;;;;;;14.10;7.23;;;0.80;99.90;;;;;;5028223;28;20467;-78
2024/01/14 12:03:12;;;;;;;10.07;5.37;;;0.60;99.90;;;;;;5031560;28;20494;-80
2024/01/14 12:05:41;;;;;;;17.80;8.20;;;0.50;99.90;;;;;;5021369;28;20568;-80
2024/01/14 12:08:08;;;;;;;19.13;7.80;;;0.50;99.90;;;;;;5019917;28;20498;-77
2024/01/14 12:10:36;;;;;;;14.50;7.23;;;0.40;99.90;;;;;;5052222;27;20873;-77
2024/01/14 12:13:04;;;;;;;13.93;6.73;;;0.30;99.90;;;;;;5064811;28;20528;-78
2024/01/14 12:15:31;;;;;;;14.13;7.87;;;0.20;99.90;;;;;;5020379;28;20470;-80
2024/01/14 12:18:01;;;;;;;13.13;6.70;;;0.20;99.90;;;;;;5048568;28;20521;-78
2024/01/14 12:20:29;;;;;;;13.80;8.20;;;0.30;99.90;;;;;;5035494;28;20226;-76
2024/01/14 12:22:57;;;;;;;17.20;6.60;;;0.40;99.90;;;;;;5031933;28;20472;-79
2024/01/14 12:25:24;;;;;;;14.33;7.57;;;0.30;99.90;;;;;;5024347;28;20882;-78
2024/01/14 12:27:51;;;;;;;10.10;5.90;;;0.10;99.90;;;;;;5033885;28;20461;-80
2024/01/14 12:30:26;;;;;;;16.30;7.40;;;-0.10;99.90;;;;;;5039714;28;20527;-78
2024/01/14 12:32:53;;;;;;;13.35;8.32;;;-0.10;99.90;;;;;;5058533;28;20464;-77
2024/01/14 12:35:30;;;;;;;14.27;6.20;;;-0.40;99.90;;;;;;5035970;28;20727;-77